Time;durP1;ratioP1;P1;durP2;ratioP2;P2;SDS_P1;SDS_P2;PMS_P1;PMS_P2;Temp;Humidity;BMP_temperature;BMP_pressure;BME280_temperature;BME280_humidity;BME280_pressure;Samples;Min_cycle;Max_cycle;Signal;HPM_P1;HPM_P2
2022/08/29 00:01:51;;;;;;;;;1.00;1.00;;;;;;;;5079934;27;45495;-78
2022/08/29 00:04:16;;;;;;;;;2.00;2.00;;;;;;;;5079280;28;45209;-76
2022/08/29 00:06:41;;;;;;;;;1.00;1.00;;;;;;;;5079461;27;45716;-76
2022/08/29 00:09:06;;;;;;;;;2.00;2.00;;;;;;;;5079857;28;45433;-76
2022/08/29 00:11:32;;;;;;;;;2.00;2.00;;;;;;;;5079264;28;46313;-76
2022/08/29 00:13:57;;;;;;;;;2.00;2.00;;;;;;;;5079727;28;45213;-75
2022/08/29 00:16:23;;;;;;;;;2.00;2.00;;;;;;;;5083919;27;45404;-77
2022/08/29 00:18:48;;;;;;;;;3.33;2.00;;;;;;;;5100206;27;45361;-76
2022/08/29 00:21:13;;;;;;;;;2.00;2.00;;;;;;;;5099790;27;46504;-77
2022/08/29 00:23:38;;;;;;;;;2.00;2.00;;;;;;;;5099795;27;45900;-75
2022/08/29 00:26:04;;;;;;;;;2.00;2.00;;;;;;;;5099797;27;45354;-76
2022/08/29 00:28:29;;;;;;;;;2.33;2.33;;;;;;;;5099831;27;45383;-75
2022/08/29 00:30:54;;;;;;;;;3.67;2.00;;;;;;;;5099661;27;45643;-75
2022/08/29 00:33:19;;;;;;;;;2.33;1.67;;;;;;;;5098848;27;45508;-76
2022/08/29 00:35:45;;;;;;;;;2.00;2.00;;;;;;;;5081152;27;45470;-76
2022/08/29 00:38:11;;;;;;;;;6.67;3.00;;;;;;;;5080854;27;45458;-75
2022/08/29 00:40:38;;;;;;;;;3.00;3.00;;;;;;;;5099212;27;46648;-77
2022/08/29 00:43:04;;;;;;;;;2.00;2.00;;;;;;;;5099544;27;45332;-77
2022/08/29 00:45:31;;;;;;;;;2.67;2.00;;;;;;;;5099680;27;45300;-77
2022/08/29 00:47:59;;;;;;;;;3.00;1.00;;;;;;;;5099669;27;45237;-75
2022/08/29 00:50:27;;;;;;;;;2.00;2.00;;;;;;;;5089463;27;47127;-75
2022/08/29 00:52:54;;;;;;;;;2.00;2.00;;;;;;;;5078793;28;45354;-78
2022/08/29 00:55:21;;;;;;;;;2.33;2.00;;;;;;;;5078927;28;45294;-75
2022/08/29 00:57:48;;;;;;;;;2.00;2.00;;;;;;;;5079000;28;45250;-76
2022/08/29 01:00:15;;;;;;;;;3.00;1.67;;;;;;;;5078505;28;46172;-76
2022/08/29 01:02:41;;;;;;;;;2.00;2.00;;;;;;;;5078112;27;46457;-76
2022/08/29 01:05:07;;;;;;;;;4.00;2.00;;;;;;;;5078568;28;45445;-74
2022/08/29 01:07:33;;;;;;;;;2.00;2.00;;;;;;;;5078366;27;45379;-76
2022/08/29 01:09:58;;;;;;;;;3.33;3.33;;;;;;;;5078518;28;45474;-76
2022/08/29 01:12:25;;;;;;;;;5.00;4.00;;;;;;;;5078561;28;45328;-75
2022/08/29 01:14:51;;;;;;;;;3.00;3.00;;;;;;;;5078358;27;45424;-76
2022/08/29 01:17:20;;;;;;;;;2.00;2.00;;;;;;;;5078758;28;45266;-77
2022/08/29 01:19:48;;;;;;;;;2.00;2.00;;;;;;;;5078187;28;45522;-76
2022/08/29 01:22:29;;;;;;;;;2.33;2.33;;;;;;;;5078207;28;45542;-76
2022/08/29 01:24:55;;;;;;;;;1.33;1.33;;;;;;;;5078060;27;45456;-75
2022/08/29 01:27:23;;;;;;;;;0.00;0.00;;;;;;;;5078792;28;45445;-75
2022/08/29 01:29:49;;;;;;;;;3.33;2.00;;;;;;;;5078006;28;46315;-77
2022/08/29 01:32:14;;;;;;;;;7.67;2.00;;;;;;;;5078450;28;45277;-76
2022/08/29 01:34:40;;;;;;;;;3.00;3.00;;;;;;;;5078059;28;45423;-75
2022/08/29 01:37:07;;;;;;;;;2.00;2.00;;;;;;;;5078412;28;45202;-75
2022/08/29 01:39:34;;;;;;;;;1.67;1.67;;;;;;;;5077856;28;46582;-76
2022/08/29 01:42:01;;;;;;;;;4.00;2.00;;;;;;;;5094113;27;45414;-76
2022/08/29 01:44:26;;;;;;;;;1.67;1.67;;;;;;;;5098824;27;45384;-75
2022/08/29 01:46:53;;;;;;;;;3.33;2.00;;;;;;;;5098348;27;45417;-76
2022/08/29 01:49:19;;;;;;;;;1.67;1.67;;;;;;;;5097467;27;47405;-76
2022/08/29 01:51:45;;;;;;;;;1.00;1.00;;;;;;;;5098001;27;45465;-77
2022/08/29 01:54:10;;;;;;;;;2.67;2.33;;;;;;;;5098278;27;45385;-76
2022/08/29 01:56:40;;;;;;;;;4.33;3.00;;;;;;;;5092415;27;45217;-77
2022/08/29 01:59:06;;;;;;;;;1.33;0.00;;;;;;;;5077616;28;46405;-74
2022/08/29 02:01:33;;;;;;;;;3.00;2.33;;;;;;;;5077780;28;45308;-75
2022/08/29 02:03:59;;;;;;;;;1.00;1.00;;;;;;;;5077984;28;45404;-75
2022/08/29 02:06:24;;;;;;;;;3.00;3.00;;;;;;;;5077512;28;45497;-75
2022/08/29 02:08:51;;;;;;;;;2.00;2.00;;;;;;;;5077309;28;46647;-74
2022/08/29 02:11:17;;;;;;;;;3.67;2.67;;;;;;;;5077587;28;45405;-75
2022/08/29 02:13:44;;;;;;;;;2.33;2.00;;;;;;;;5077788;27;45430;-75
2022/08/29 02:16:10;;;;;;;;;2.00;2.00;;;;;;;;5077964;28;45752;-74
2022/08/29 02:18:35;;;;;;;;;2.00;2.00;;;;;;;;5077556;28;46890;-74
2022/08/29 02:21:00;;;;;;;;;3.33;3.00;;;;;;;;5058789;28;45431;-73
2022/08/29 02:23:25;;;;;;;;;1.67;1.67;;;;;;;;5077815;28;45367;-74
2022/08/29 02:25:52;;;;;;;;;4.00;2.00;;;;;;;;5077812;28;45418;-75
2022/08/29 02:28:17;;;;;;;;;3.33;2.00;;;;;;;;5076920;27;46243;-74
2022/08/29 02:30:44;;;;;;;;;3.67;2.00;;;;;;;;5077192;28;45467;-75
2022/08/29 02:33:12;;;;;;;;;2.00;2.00;;;;;;;;5077261;28;45159;-75
2022/08/29 02:35:38;;;;;;;;;6.00;2.00;;;;;;;;5077696;28;45379;-75
2022/08/29 02:38:03;;;;;;;;;2.00;2.00;;;;;;;;5077109;28;46068;-74
2022/08/29 02:40:28;;;;;;;;;4.33;3.00;;;;;;;;5077476;28;45147;-74
2022/08/29 02:42:54;;;;;;;;;3.00;2.00;;;;;;;;5077397;28;45254;-74
2022/08/29 02:45:20;;;;;;;;;3.00;3.00;;;;;;;;5091754;27;45554;-74
2022/08/29 02:47:46;;;;;;;;;3.00;3.00;;;;;;;;5097678;27;45567;-75
2022/08/29 02:50:11;;;;;;;;;2.33;2.00;;;;;;;;5097336;27;45397;-74
2022/08/29 02:52:40;;;;;;;;;5.33;2.33;;;;;;;;5097764;27;45514;-75
2022/08/29 02:55:06;;;;;;;;;6.00;3.00;;;;;;;;5097735;27;45525;-74
2022/08/29 02:57:31;;;;;;;;;3.00;2.00;;;;;;;;5097298;27;47878;-76
2022/08/29 02:59:56;;;;;;;;;9.33;2.00;;;;;;;;5097749;27;45253;-74
2022/08/29 03:02:22;;;;;;;;;4.33;3.00;;;;;;;;5093725;27;45412;-74
2022/08/29 03:04:47;;;;;;;;;3.00;3.00;;;;;;;;5080862;28;45451;-77
2022/08/29 03:07:12;;;;;;;;;6.00;3.33;;;;;;;;5080050;27;46490;-73
2022/08/29 03:09:38;;;;;;;;;4.00;2.00;;;;;;;;5080397;27;45389;-74
2022/08/29 03:12:03;;;;;;;;;3.00;3.00;;;;;;;;5080581;28;45269;-75
2022/08/29 03:14:28;;;;;;;;;5.33;3.33;;;;;;;;5080465;28;45599;-77
2022/08/29 03:16:54;;;;;;;;;4.00;3.00;;;;;;;;5080510;28;46615;-74
2022/08/29 03:19:19;;;;;;;;;3.00;3.00;;;;;;;;5081347;27;45550;-74
2022/08/29 03:21:44;;;;;;;;;2.00;2.00;;;;;;;;5100977;27;45359;-76
2022/08/29 03:24:10;;;;;;;;;2.67;2.67;;;;;;;;5100860;27;45592;-74
2022/08/29 03:26:35;;;;;;;;;3.00;3.00;;;;;;;;5100522;27;46214;-75
2022/08/29 03:29:01;;;;;;;;;3.67;3.67;;;;;;;;5100638;27;45380;-75
2022/08/29 03:31:26;;;;;;;;;3.33;3.33;;;;;;;;5100688;27;45282;-75
2022/08/29 03:33:52;;;;;;;;;2.33;2.33;;;;;;;;5100875;27;45309;-74
2022/08/29 03:36:17;;;;;;;;;4.67;4.00;;;;;;;;5084069;27;46426;-74
2022/08/29 03:38:45;;;;;;;;;2.00;2.00;;;;;;;;5079823;28;45289;-75
2022/08/29 03:41:11;;;;;;;;;6.67;3.67;;;;;;;;5080389;28;45352;-75
2022/08/29 03:43:36;;;;;;;;;3.67;2.33;;;;;;;;5080204;28;45356;-76
2022/08/29 03:46:01;;;;;;;;;3.00;2.33;;;;;;;;5079829;27;46408;-74
2022/08/29 03:48:27;;;;;;;;;3.00;2.33;;;;;;;;5079750;27;45315;-74
2022/08/29 03:50:52;;;;;;;;;5.00;3.00;;;;;;;;5080059;27;45222;-74
2022/08/29 03:53:18;;;;;;;;;4.00;2.67;;;;;;;;5089612;27;45304;-74
2022/08/29 03:55:43;;;;;;;;;2.33;2.00;;;;;;;;5100203;27;45208;-74
2022/08/29 03:58:08;;;;;;;;;4.00;4.00;;;;;;;;5100150;27;45175;-74
2022/08/29 04:00:33;;;;;;;;;3.00;3.00;;;;;;;;5100179;27;45421;-75
2022/08/29 04:02:59;;;;;;;;;3.00;2.33;;;;;;;;5100566;27;45265;-75
2022/08/29 04:05:24;;;;;;;;;3.00;1.00;;;;;;;;5099973;27;45524;-74
2022/08/29 04:07:51;;;;;;;;;4.00;2.00;;;;;;;;5096486;27;45473;-75
2022/08/29 04:10:27;;;;;;;;;3.33;3.33;;;;;;;;5079612;28;45309;-74
2022/08/29 04:12:52;;;;;;;;;4.00;4.00;;;;;;;;5079124;28;45327;-74
2022/08/29 04:15:17;;;;;;;;;2.67;2.67;;;;;;;;5079374;28;47355;-74
2022/08/29 04:17:43;;;;;;;;;3.00;3.00;;;;;;;;5079354;28;45827;-73
2022/08/29 04:20:09;;;;;;;;;5.33;3.00;;;;;;;;5079755;28;45407;-74
2022/08/29 04:22:35;;;;;;;;;2.00;2.00;;;;;;;;5079194;27;45564;-76
2022/08/29 04:25:01;;;;;;;;;4.00;4.00;;;;;;;;5079006;27;46528;-74
2022/08/29 04:27:26;;;;;;;;;4.00;4.00;;;;;;;;5079324;28;45230;-74
2022/08/29 04:29:51;;;;;;;;;3.33;3.33;;;;;;;;5079311;28;45826;-75
2022/08/29 04:32:17;;;;;;;;;2.00;2.00;;;;;;;;5079721;28;45371;-75
2022/08/29 04:34:42;;;;;;;;;4.00;2.00;;;;;;;;5078885;27;45616;-74
2022/08/29 04:37:07;;;;;;;;;3.00;3.00;;;;;;;;5079475;28;45190;-74
2022/08/29 04:39:33;;;;;;;;;4.67;3.00;;;;;;;;5079199;28;45326;-74
2022/08/29 04:41:58;;;;;;;;;3.00;2.33;;;;;;;;5079213;27;45290;-74
2022/08/29 04:44:23;;;;;;;;;6.00;4.33;;;;;;;;5079084;28;46566;-75
2022/08/29 04:46:48;;;;;;;;;2.33;2.33;;;;;;;;5078821;28;45308;-75
2022/08/29 04:49:14;;;;;;;;;5.67;3.00;;;;;;;;5079080;28;45220;-76
2022/08/29 04:51:39;;;;;;;;;2.33;2.00;;;;;;;;5079288;28;45313;-75
2022/08/29 04:54:05;;;;;;;;;3.67;2.00;;;;;;;;5078855;28;45660;-75
2022/08/29 04:56:31;;;;;;;;;1.67;1.67;;;;;;;;5078840;27;45715;-75
2022/08/29 04:58:56;;;;;;;;;5.00;3.33;;;;;;;;5078378;27;45283;-75
2022/08/29 05:01:23;;;;;;;;;4.00;3.00;;;;;;;;5078989;28;45604;-75
2022/08/29 05:03:48;;;;;;;;;4.00;3.00;;;;;;;;5078135;28;45361;-74
2022/08/29 05:06:14;;;;;;;;;4.67;4.00;;;;;;;;5078102;28;45492;-73
2022/08/29 05:08:41;;;;;;;;;2.67;2.67;;;;;;;;5078469;28;45458;-74
2022/08/29 05:11:09;;;;;;;;;3.00;3.00;;;;;;;;5079024;28;45489;-74
2022/08/29 05:13:34;;;;;;;;;2.33;2.33;;;;;;;;5078207;27;46554;-75
2022/08/29 05:16:03;;;;;;;;;5.00;4.67;;;;;;;;5078177;28;45373;-74
2022/08/29 05:18:29;;;;;;;;;4.00;3.00;;;;;;;;5078549;28;45372;-74
2022/08/29 05:20:54;;;;;;;;;4.00;2.33;;;;;;;;5078747;28;45384;-73
2022/08/29 05:23:19;;;;;;;;;5.67;3.00;;;;;;;;5077859;28;45479;-74
2022/08/29 05:25:44;;;;;;;;;3.00;3.00;;;;;;;;5077215;28;45591;-75
2022/08/29 05:28:10;;;;;;;;;6.00;4.00;;;;;;;;5077989;27;45379;-76
2022/08/29 05:30:39;;;;;;;;;3.67;3.00;;;;;;;;5078081;27;45736;-75
2022/08/29 05:33:04;;;;;;;;;2.00;2.00;;;;;;;;5078260;28;45688;-74
2022/08/29 05:35:30;;;;;;;;;5.33;4.00;;;;;;;;5078064;28;45452;-75
2022/08/29 05:37:55;;;;;;;;;5.00;3.00;;;;;;;;5078270;28;45400;-74
2022/08/29 05:40:21;;;;;;;;;6.00;4.00;;;;;;;;5077980;27;45430;-75
2022/08/29 05:42:46;;;;;;;;;5.00;3.33;;;;;;;;5078363;28;46215;-74
2022/08/29 05:45:12;;;;;;;;;4.33;3.33;;;;;;;;5077842;28;45369;-74
2022/08/29 05:47:37;;;;;;;;;5.67;4.00;;;;;;;;5077615;27;45525;-74
2022/08/29 05:50:02;;;;;;;;;5.00;3.00;;;;;;;;5078076;28;45309;-74
2022/08/29 05:52:28;;;;;;;;;4.00;3.00;;;;;;;;5077670;28;46685;-77
2022/08/29 05:54:53;;;;;;;;;3.00;3.00;;;;;;;;5077833;28;45274;-74
2022/08/29 05:57:20;;;;;;;;;2.00;2.00;;;;;;;;5078053;28;45293;-74
2022/08/29 05:59:45;;;;;;;;;5.00;3.67;;;;;;;;5078054;27;45453;-74
2022/08/29 06:02:11;;;;;;;;;3.00;3.00;;;;;;;;5077521;28;45838;-74
2022/08/29 06:04:36;;;;;;;;;5.00;3.67;;;;;;;;5077094;27;45601;-74
2022/08/29 06:07:03;;;;;;;;;2.67;2.00;;;;;;;;5056094;28;45244;-75
2022/08/29 06:09:28;;;;;;;;;3.67;3.00;;;;;;;;5057429;28;45245;-74
2022/08/29 06:11:53;;;;;;;;;3.00;3.00;;;;;;;;5057131;28;45442;-74
2022/08/29 06:14:18;;;;;;;;;3.00;3.00;;;;;;;;5057073;28;45316;-74
2022/08/29 06:16:44;;;;;;;;;2.00;2.00;;;;;;;;5057533;28;45322;-75
2022/08/29 06:19:09;;;;;;;;;4.00;3.00;;;;;;;;5057924;28;45227;-76
2022/08/29 06:21:35;;;;;;;;;4.33;4.33;;;;;;;;5056586;27;47179;-74
2022/08/29 06:24:00;;;;;;;;;2.33;2.00;;;;;;;;5056950;28;45359;-74
2022/08/29 06:26:25;;;;;;;;;4.00;4.00;;;;;;;;5056320;28;45422;-74
2022/08/29 06:28:50;;;;;;;;;6.00;3.00;;;;;;;;5056987;28;45355;-73
2022/08/29 06:31:15;;;;;;;;;5.00;2.33;;;;;;;;5056840;28;47646;-74
2022/08/29 06:33:41;;;;;;;;;3.00;3.00;;;;;;;;5056641;28;45442;-75
2022/08/29 06:36:07;;;;;;;;;4.00;3.00;;;;;;;;5058201;28;45727;-75
2022/08/29 06:38:32;;;;;;;;;3.00;3.00;;;;;;;;5077203;27;45460;-75
2022/08/29 06:41:01;;;;;;;;;3.00;2.33;;;;;;;;5080388;27;46614;-73
2022/08/29 06:43:27;;;;;;;;;2.33;2.33;;;;;;;;5080667;27;45373;-73
2022/08/29 06:45:52;;;;;;;;;4.67;4.00;;;;;;;;5080203;28;45391;-71
2022/08/29 06:48:18;;;;;;;;;2.67;2.67;;;;;;;;5081119;28;45237;-72
2022/08/29 06:50:43;;;;;;;;;5.00;3.00;;;;;;;;5080958;28;45392;-72
2022/08/29 06:53:08;;;;;;;;;4.67;3.00;;;;;;;;5080633;28;45445;-75
2022/08/29 06:55:34;;;;;;;;;4.00;2.00;;;;;;;;5067914;27;45257;-74
2022/08/29 06:57:59;;;;;;;;;5.67;5.67;;;;;;;;5060816;28;45309;-72
2022/08/29 07:00:24;;;;;;;;;1.67;0.00;;;;;;;;5060276;28;45615;-73
2022/08/29 07:02:50;;;;;;;;;2.00;2.00;;;;;;;;5060460;28;45625;-71
2022/08/29 07:05:16;;;;;;;;;4.33;3.00;;;;;;;;5060431;28;45449;-71
2022/08/29 07:07:41;;;;;;;;;2.00;1.33;;;;;;;;5076144;28;45329;-74
2022/08/29 07:10:07;;;;;;;;;2.00;1.67;;;;;;;;5079654;28;45680;-76
2022/08/29 07:12:32;;;;;;;;;3.00;1.00;;;;;;;;5080251;27;45319;-76
2022/08/29 07:14:57;;;;;;;;;3.00;3.00;;;;;;;;5080510;28;45548;-77
2022/08/29 07:17:22;;;;;;;;;2.00;2.00;;;;;;;;5080749;28;45474;-77
2022/08/29 07:19:48;;;;;;;;;2.00;2.00;;;;;;;;5080125;28;45439;-75
2022/08/29 07:22:13;;;;;;;;;4.00;3.00;;;;;;;;5079867;28;45454;-74
2022/08/29 07:24:38;;;;;;;;;2.00;2.00;;;;;;;;5079958;28;45356;-75
2022/08/29 07:27:03;;;;;;;;;2.00;2.00;;;;;;;;5079909;27;45276;-75
2022/08/29 07:29:29;;;;;;;;;3.00;2.00;;;;;;;;5079943;28;45431;-77
2022/08/29 07:31:54;;;;;;;;;2.00;2.00;;;;;;;;5080208;28;45576;-75
2022/08/29 07:34:19;;;;;;;;;3.00;3.00;;;;;;;;5062203;28;45459;-75
2022/08/29 07:36:45;;;;;;;;;1.00;1.00;;;;;;;;5061793;28;45585;-76
2022/08/29 07:39:12;;;;;;;;;2.00;2.00;;;;;;;;5079695;28;46108;-76
2022/08/29 07:41:38;;;;;;;;;2.33;1.00;;;;;;;;5079874;27;45184;-75
2022/08/29 07:44:03;;;;;;;;;3.67;1.67;;;;;;;;5095902;27;45606;-76
2022/08/29 07:46:30;;;;;;;;;2.00;2.00;;;;;;;;5100732;27;45365;-76
2022/08/29 07:48:56;;;;;;;;;3.33;2.00;;;;;;;;5099086;27;46625;-77
2022/08/29 07:51:22;;;;;;;;;3.00;2.00;;;;;;;;5100254;27;45408;-70
2022/08/29 07:53:47;;;;;;;;;1.00;1.00;;;;;;;;5100176;27;45379;-73
2022/08/29 07:56:14;;;;;;;;;2.33;1.00;;;;;;;;5099869;27;45414;-76
2022/08/29 07:58:39;;;;;;;;;2.00;2.00;;;;;;;;5096992;27;45575;-80
2022/08/29 08:01:05;;;;;;;;;1.33;1.33;;;;;;;;5079137;27;45471;-72
2022/08/29 08:03:31;;;;;;;;;2.00;2.00;;;;;;;;5079924;28;45289;-73
2022/08/29 08:05:56;;;;;;;;;1.00;1.00;;;;;;;;5079426;27;45329;-71
2022/08/29 08:08:21;;;;;;;;;2.00;2.00;;;;;;;;5079563;27;45881;-78
2022/08/29 08:10:47;;;;;;;;;2.00;1.00;;;;;;;;5079383;28;45234;-73
2022/08/29 08:13:13;;;;;;;;;4.00;1.33;;;;;;;;5079574;28;45230;-71
2022/08/29 08:15:39;;;;;;;;;4.00;2.00;;;;;;;;5089634;27;45258;-71
2022/08/29 08:18:04;;;;;;;;;1.00;1.00;;;;;;;;5099585;27;46304;-71
2022/08/29 08:20:30;;;;;;;;;3.00;2.00;;;;;;;;5100880;27;45281;-77
2022/08/29 08:22:55;;;;;;;;;1.67;1.00;;;;;;;;5101023;27;45468;-71
2022/08/29 08:25:21;;;;;;;;;1.00;1.00;;;;;;;;5100802;27;45325;-72
2022/08/29 08:27:46;;;;;;;;;2.33;2.33;;;;;;;;5099178;27;45594;-74
2022/08/29 08:30:11;;;;;;;;;2.00;2.00;;;;;;;;5099712;27;45470;-83
2022/08/29 08:32:37;;;;;;;;;1.00;1.00;;;;;;;;5096599;27;45339;-72
2022/08/29 08:35:02;;;;;;;;;3.33;1.67;;;;;;;;5079523;28;45456;-72
2022/08/29 08:37:27;;;;;;;;;1.00;1.00;;;;;;;;5077856;28;46549;-73
2022/08/29 08:39:56;;;;;;;;;1.00;1.00;;;;;;;;5078672;28;45534;-77
2022/08/29 08:42:41;;;;;;;;;2.00;2.00;;;;;;;;5078609;27;45409;-80
2022/08/29 08:45:09;;;;;;;;;2.33;1.00;;;;;;;;5079361;28;45419;-79
2022/08/29 08:47:42;;;;;;;;;1.00;1.00;;;;;;;;5079673;28;46391;-81
2022/08/29 08:50:11;;;;;;;;;1.67;1.67;;;;;;;;5078717;27;45266;-77
2022/08/29 08:52:52;;;;;;;;;1.00;1.00;;;;;;;;5093075;27;45497;-78
2022/08/29 08:55:39;;;;;;;;;3.33;2.33;;;;;;;;5098771;27;45397;-75
2022/08/29 08:58:37;;;;;;;;;1.00;1.00;;;;;;;;5098653;27;46103;-76
2022/08/29 09:01:23;;;;;;;;;3.00;2.00;;;;;;;;5015523;28;45430;-76
2022/08/29 09:03:54;;;;;;;;;2.00;1.67;;;;;;;;5015673;28;45370;-79
2022/08/29 09:06:38;;;;;;;;;4.33;2.00;;;;;;;;5026250;28;45473;-69
2022/08/29 09:09:10;;;;;;;;;1.33;1.00;;;;;;;;5015806;28;46534;-80
2022/08/29 09:11:35;;;;;;;;;4.33;1.00;;;;;;;;5015399;28;45406;-73
2022/08/29 09:14:19;;;;;;;;;1.00;1.00;;;;;;;;5015281;28;45512;-77
2022/08/29 09:16:48;;;;;;;;;2.00;1.00;;;;;;;;4999164;28;45386;-73
2022/08/29 09:19:16;;;;;;;;;3.00;2.00;;;;;;;;5015403;28;45451;-75
2022/08/29 09:21:44;;;;;;;;;0.67;0.33;;;;;;;;5028171;28;45767;-74
2022/08/29 09:24:16;;;;;;;;;1.67;1.67;;;;;;;;5015620;28;45370;-74
2022/08/29 09:26:41;;;;;;;;;2.33;1.00;;;;;;;;5015180;28;45493;-80
2022/08/29 09:29:08;;;;;;;;;3.00;3.00;;;;;;;;5015019;28;46558;-73
2022/08/29 09:31:34;;;;;;;;;4.33;1.00;;;;;;;;5015461;28;45346;-75
2022/08/29 09:34:01;;;;;;;;;2.00;2.00;;;;;;;;5015496;28;45423;-72
2022/08/29 09:36:47;;;;;;;;;2.67;1.00;;;;;;;;5047792;27;45542;-74
2022/08/29 09:39:15;;;;;;;;;1.67;1.67;;;;;;;;5096525;27;45646;-73
2022/08/29 09:41:41;;;;;;;;;2.67;2.67;;;;;;;;5097535;27;45826;-72
2022/08/29 09:44:08;;;;;;;;;1.67;1.67;;;;;;;;5098419;27;45327;-75
2022/08/29 09:46:33;;;;;;;;;2.33;2.00;;;;;;;;5098741;27;45437;-78
2022/08/29 09:48:59;;;;;;;;;1.33;1.00;;;;;;;;5098011;27;45372;-81
2022/08/29 09:51:32;;;;;;;;;1.33;1.00;;;;;;;;5097628;27;45397;-75
2022/08/29 09:54:11;;;;;;;;;3.00;3.00;;;;;;;;5098662;27;45431;-76
2022/08/29 09:56:39;;;;;;;;;1.00;1.00;;;;;;;;5096763;27;45570;-76
2022/08/29 09:59:13;;;;;;;;;1.00;1.00;;;;;;;;5077724;27;47140;-79
2022/08/29 10:01:38;;;;;;;;;2.00;2.00;;;;;;;;5091805;27;45348;-81
2022/08/29 10:04:05;;;;;;;;;2.33;1.00;;;;;;;;5077618;27;45515;-80
2022/08/29 10:06:38;;;;;;;;;2.67;2.33;;;;;;;;5076779;27;45459;-75
2022/08/29 10:09:10;;;;;;;;;4.00;2.00;;;;;;;;5076374;28;46081;-77
2022/08/29 10:11:38;;;;;;;;;2.67;1.00;;;;;;;;5075860;28;45413;-74
2022/08/29 10:14:08;;;;;;;;;3.00;3.00;;;;;;;;5076094;27;45558;-78
2022/08/29 10:16:43;;;;;;;;;1.33;1.33;;;;;;;;5076549;28;45316;-73
2022/08/29 10:19:28;;;;;;;;;1.00;1.00;;;;;;;;5076612;28;46120;-73
2022/08/29 10:22:14;;;;;;;;;2.00;2.00;;;;;;;;5076587;28;45340;-78
2022/08/29 10:24:58;;;;;;;;;1.33;1.33;;;;;;;;5076169;28;45791;-79
2022/08/29 10:27:23;;;;;;;;;0.67;0.67;;;;;;;;5076318;27;45546;-77
2022/08/29 10:29:51;;;;;;;;;2.33;0.67;;;;;;;;5063422;27;45951;-76
2022/08/29 10:32:34;;;;;;;;;2.00;2.00;;;;;;;;5097154;27;45408;-74
2022/08/29 10:35:13;;;;;;;;;1.33;0.33;;;;;;;;5097012;27;45711;-73
2022/08/29 10:37:54;;;;;;;;;2.33;2.33;;;;;;;;5097335;27;45465;-75
2022/08/29 10:40:24;;;;;;;;;1.00;1.00;;;;;;;;5096529;27;45475;-78
2022/08/29 10:42:51;;;;;;;;;1.00;1.00;;;;;;;;5096660;27;45476;-76
2022/08/29 10:45:27;;;;;;;;;0.00;0.00;;;;;;;;5095977;27;45476;-74
2022/08/29 10:48:00;;;;;;;;;2.00;1.00;;;;;;;;5097220;27;45486;-75
2022/08/29 10:50:35;;;;;;;;;0.67;0.67;;;;;;;;5096545;27;45545;-72
2022/08/29 10:53:13;;;;;;;;;1.00;1.00;;;;;;;;5087795;27;45371;-67
2022/08/29 10:55:53;;;;;;;;;2.00;1.33;;;;;;;;5076433;28;45353;-72
2022/08/29 10:58:44;;;;;;;;;1.00;1.00;;;;;;;;5076695;28;45280;-67
2022/08/29 11:01:26;;;;;;;;;1.33;0.67;;;;;;;;5076789;28;45381;-68
2022/08/29 11:03:57;;;;;;;;;1.00;1.00;;;;;;;;5076293;27;45433;-72
2022/08/29 11:06:31;;;;;;;;;2.00;0.67;;;;;;;;5076488;27;45258;-71
2022/08/29 11:08:57;;;;;;;;;4.00;1.00;;;;;;;;5076718;28;45243;-73
2022/08/29 11:11:22;;;;;;;;;2.00;0.67;;;;;;;;5076701;28;45211;-71
2022/08/29 11:13:59;;;;;;;;;2.33;2.00;;;;;;;;5076394;27;45372;-70
2022/08/29 11:16:27;;;;;;;;;1.00;1.00;;;;;;;;5076481;27;45356;-70
2022/08/29 11:19:01;;;;;;;;;3.00;1.00;;;;;;;;5077338;28;45300;-69
2022/08/29 11:21:29;;;;;;;;;1.00;1.00;;;;;;;;5076696;27;45444;-72
2022/08/29 11:23:57;;;;;;;;;1.33;1.00;;;;;;;;5080463;28;45390;-71
2022/08/29 11:26:41;;;;;;;;;2.00;2.00;;;;;;;;5080262;28;45329;-71
2022/08/29 11:29:12;;;;;;;;;4.00;2.00;;;;;;;;5080232;27;45309;-71
2022/08/29 11:31:55;;;;;;;;;10.00;9.33;;;;;;;;5080049;28;46554;-71
2022/08/29 11:34:36;;;;;;;;;4.00;2.00;;;;;;;;5080014;27;45424;-73
2022/08/29 11:37:23;;;;;;;;;6.33;2.00;;;;;;;;5080500;28;45481;-73
2022/08/29 11:39:55;;;;;;;;;1.67;1.67;;;;;;;;5093785;27;45289;-75
2022/08/29 11:42:22;;;;;;;;;3.00;2.67;;;;;;;;5100452;27;45532;-76
2022/08/29 11:44:52;;;;;;;;;2.00;1.00;;;;;;;;5091278;27;45690;-71
2022/08/29 11:47:32;;;;;;;;;1.00;1.00;;;;;;;;5092759;27;45497;-70
2022/08/29 11:50:03;;;;;;;;;2.00;2.00;;;;;;;;5098964;27;45434;-71
2022/08/29 11:52:29;;;;;;;;;2.00;2.00;;;;;;;;5099553;27;46403;-74
2022/08/29 11:55:13;;;;;;;;;3.67;2.00;;;;;;;;5094947;27;45467;-76
2022/08/29 11:57:58;;;;;;;;;1.67;1.33;;;;;;;;5060692;28;45258;-75
2022/08/29 12:00:26;;;;;;;;;1.00;1.00;;;;;;;;5078272;27;45321;-75
2022/08/29 12:02:51;;;;;;;;;1.67;1.67;;;;;;;;5060967;28;45959;-73
2022/08/29 12:05:16;;;;;;;;;7.00;4.00;;;;;;;;5079072;28;45435;-73
2022/08/29 12:07:48;;;;;;;;;2.00;2.00;;;;;;;;5083368;27;45331;-71
2022/08/29 12:10:20;;;;;;;;;2.67;2.67;;;;;;;;5080204;27;45550;-71
2022/08/29 12:12:50;;;;;;;;;2.33;2.00;;;;;;;;5078268;27;47517;-80
2022/08/29 12:15:31;;;;;;;;;5.67;2.33;;;;;;;;5079209;27;45336;-77
2022/08/29 12:17:58;;;;;;;;;4.00;2.67;;;;;;;;5089545;27;45425;-76
2022/08/29 12:20:29;;;;;;;;;3.00;3.00;;;;;;;;5098949;27;45601;-77
2022/08/29 12:23:05;;;;;;;;;2.00;2.00;;;;;;;;5098327;27;45534;-77
2022/08/29 12:25:43;;;;;;;;;4.00;4.00;;;;;;;;5098244;27;45357;-77
2022/08/29 12:28:22;;;;;;;;;2.67;2.67;;;;;;;;5098291;27;45366;-77
2022/08/29 12:31:03;;;;;;;;;4.00;2.67;;;;;;;;5097331;27;45478;-76
2022/08/29 12:33:28;;;;;;;;;1.00;1.00;;;;;;;;5097911;27;46499;-75
2022/08/29 12:35:53;;;;;;;;;2.67;2.67;;;;;;;;5098961;27;45423;-76
2022/08/29 12:38:30;;;;;;;;;2.00;2.00;;;;;;;;5098841;27;45541;-77
2022/08/29 12:41:01;;;;;;;;;3.00;1.67;;;;;;;;5098794;27;45550;-78
2022/08/29 12:43:29;;;;;;;;;2.00;2.00;;;;;;;;5097604;27;45905;-79
2022/08/29 12:45:55;;;;;;;;;2.00;2.00;;;;;;;;5093830;27;45506;-78
2022/08/29 12:48:32;;;;;;;;;5.67;2.67;;;;;;;;5097671;27;45423;-77
2022/08/29 12:50:57;;;;;;;;;1.00;1.00;;;;;;;;5098460;27;45392;-78
2022/08/29 12:53:29;;;;;;;;;3.33;2.00;;;;;;;;5097965;27;47248;-77
2022/08/29 12:55:58;;;;;;;;;3.33;3.00;;;;;;;;5090709;27;45481;-77
2022/08/29 12:58:30;;;;;;;;;4.00;3.33;;;;;;;;5094544;27;45447;-75
2022/08/29 13:00:55;;;;;;;;;6.00;2.33;;;;;;;;5096797;27;45577;-77
2022/08/29 13:03:20;;;;;;;;;2.67;1.33;;;;;;;;5088287;27;45383;-78
2022/08/29 13:05:46;;;;;;;;;2.67;2.67;;;;;;;;5067702;27;45602;-75
2022/08/29 13:08:11;;;;;;;;;5.33;3.33;;;;;;;;5112344;27;45353;-78
2022/08/29 13:10:38;;;;;;;;;3.00;3.00;;;;;;;;5097771;27;45487;-76
2022/08/29 13:13:05;;;;;;;;;3.00;3.00;;;;;;;;5097154;27;46275;-75
2022/08/29 13:15:30;;;;;;;;;2.33;2.33;;;;;;;;5093429;27;45705;-77
2022/08/29 13:17:56;;;;;;;;;4.67;4.00;;;;;;;;5096411;27;45467;-79
2022/08/29 13:20:36;;;;;;;;;4.00;1.33;;;;;;;;5077066;27;45709;-77
2022/08/29 13:23:07;;;;;;;;;2.33;2.33;;;;;;;;5076558;27;45676;-81
2022/08/29 13:25:32;;;;;;;;;4.00;1.67;;;;;;;;5076893;28;45709;-75
2022/08/29 13:27:57;;;;;;;;;3.00;3.00;;;;;;;;5077078;28;45770;-76
2022/08/29 13:30:23;;;;;;;;;3.33;3.33;;;;;;;;5077073;28;45482;-78
2022/08/29 13:32:50;;;;;;;;;8.00;5.00;;;;;;;;5076704;28;46378;-77
2022/08/29 13:35:17;;;;;;;;;4.00;4.00;;;;;;;;5076438;27;45407;-77
2022/08/29 13:37:44;;;;;;;;;4.00;4.00;;;;;;;;5076630;28;45406;-76
2022/08/29 13:40:30;;;;;;;;;4.00;3.00;;;;;;;;5077049;28;45352;-77
2022/08/29 13:42:57;;;;;;;;;2.33;2.33;;;;;;;;5075416;28;46396;-75
2022/08/29 13:45:24;;;;;;;;;3.00;3.00;;;;;;;;5075022;28;45436;-77
2022/08/29 13:47:58;;;;;;;;;6.33;3.00;;;;;;;;5077087;28;45501;-80
2022/08/29 13:50:24;;;;;;;;;5.00;2.67;;;;;;;;5076801;27;45526;-77
2022/08/29 13:52:51;;;;;;;;;4.00;3.00;;;;;;;;5091734;27;46172;-78
2022/08/29 13:55:16;;;;;;;;;3.67;2.00;;;;;;;;5085249;27;45790;-76
2022/08/29 13:57:43;;;;;;;;;7.00;4.00;;;;;;;;5076173;27;45385;-77
2022/08/29 14:00:11;;;;;;;;;3.00;3.00;;;;;;;;5076696;27;45417;-77
2022/08/29 14:02:38;;;;;;;;;6.67;4.00;;;;;;;;5077310;27;46261;-78
2022/08/29 14:05:03;;;;;;;;;4.00;4.00;;;;;;;;5094828;27;45632;-78
2022/08/29 14:07:30;;;;;;;;;3.00;3.00;;;;;;;;5095059;27;45657;-79
2022/08/29 14:09:56;;;;;;;;;4.33;3.00;;;;;;;;5082457;27;45403;-78
2022/08/29 14:12:21;;;;;;;;;3.67;2.33;;;;;;;;5087387;27;45449;-78
2022/08/29 14:14:46;;;;;;;;;5.00;3.33;;;;;;;;5096249;27;45257;-78
2022/08/29 14:17:12;;;;;;;;;7.00;4.33;;;;;;;;5096709;27;45291;-78
2022/08/29 14:19:37;;;;;;;;;6.00;4.33;;;;;;;;5078397;27;45417;-80
2022/08/29 14:22:03;;;;;;;;;3.00;3.00;;;;;;;;5097541;27;46996;-75
2022/08/29 14:24:29;;;;;;;;;5.00;3.67;;;;;;;;5096771;27;45572;-77
2022/08/29 14:26:54;;;;;;;;;4.00;4.00;;;;;;;;5096021;27;45491;-77
2022/08/29 14:29:20;;;;;;;;;6.67;5.00;;;;;;;;5086057;27;45965;-76
2022/08/29 14:31:45;;;;;;;;;4.00;2.33;;;;;;;;5095522;27;46369;-78
2022/08/29 14:34:11;;;;;;;;;5.33;4.33;;;;;;;;5096584;27;45503;-79
2022/08/29 14:36:36;;;;;;;;;6.00;6.00;;;;;;;;5096476;27;45498;-80
2022/08/29 14:39:02;;;;;;;;;5.00;3.33;;;;;;;;5096529;27;45380;-83
2022/08/29 14:41:27;;;;;;;;;7.33;3.67;;;;;;;;5096377;27;47209;-80
2022/08/29 14:43:55;;;;;;;;;4.00;4.00;;;;;;;;5096034;27;45479;-78
2022/08/29 14:46:20;;;;;;;;;2.33;2.33;;;;;;;;5083352;27;45392;-82
2022/08/29 14:48:46;;;;;;;;;3.33;3.33;;;;;;;;5085618;27;45364;-82